sensor_id;sensor_type;location;lat;lon;timestamp;P1;durP1;ratioP1;P2;durP2;ratioP2
21416;SDS011;10869;52.238;10.716;2022-08-11T03:07:27;7.00;;;2.77;;
21416;SDS011;10869;52.238;10.716;2022-08-11T03:10:17;10.20;;;3.20;;
21416;SDS011;10869;52.238;10.716;2022-08-11T03:15:51;5.83;;;2.97;;
21416;SDS011;10869;52.238;10.716;2022-08-11T03:18:55;10.87;;;3.97;;
21416;SDS011;10869;52.238;10.716;2022-08-11T03:21:41;6.83;;;2.57;;
21416;SDS011;10869;52.238;10.716;2022-08-11T03:24:14;8.10;;;3.17;;
21416;SDS011;10869;52.238;10.716;2022-08-11T03:29:43;7.93;;;3.47;;
21416;SDS011;10869;52.238;10.716;2022-08-11T03:34:57;8.17;;;3.60;;
21416;SDS011;10869;52.238;10.716;2022-08-11T03:38:11;10.70;;;3.70;;
21416;SDS011;10869;52.238;10.716;2022-08-11T03:51:45;7.53;;;2.97;;
21416;SDS011;10869;52.238;10.716;2022-08-11T04:18:32;7.53;;;2.73;;
21416;SDS011;10869;52.238;10.716;2022-08-11T04:29:05;11.67;;;3.27;;
21416;SDS011;10869;52.238;10.716;2022-08-11T04:53:18;9.23;;;3.13;;
21416;SDS011;10869;52.238;10.716;2022-08-11T04:56:15;9.13;;;3.67;;
21416;SDS011;10869;52.238;10.716;2022-08-11T04:59:52;10.03;;;2.67;;
21416;SDS011;10869;52.238;10.716;2022-08-11T05:13:27;8.27;;;2.97;;
21416;SDS011;10869;52.238;10.716;2022-08-11T05:16:12;7.00;;;2.90;;
21416;SDS011;10869;52.238;10.716;2022-08-11T05:19:00;7.40;;;3.37;;
21416;SDS011;10869;52.238;10.716;2022-08-11T05:21:49;5.20;;;2.80;;
21416;SDS011;10869;52.238;10.716;2022-08-11T05:24:44;6.83;;;3.50;;
21416;SDS011;10869;52.238;10.716;2022-08-11T05:27:37;7.40;;;2.87;;
21416;SDS011;10869;52.238;10.716;2022-08-11T05:30:27;8.77;;;3.50;;
21416;SDS011;10869;52.238;10.716;2022-08-11T05:33:35;10.97;;;3.57;;
21416;SDS011;10869;52.238;10.716;2022-08-11T05:36:47;7.80;;;3.53;;
21416;SDS011;10869;52.238;10.716;2022-08-11T05:39:20;4.73;;;2.90;;
21416;SDS011;10869;52.238;10.716;2022-08-11T05:42:08;4.23;;;2.80;;
21416;SDS011;10869;52.238;10.716;2022-08-11T05:44:54;7.40;;;2.83;;
21416;SDS011;10869;52.238;10.716;2022-08-11T05:47:41;7.27;;;3.43;;
21416;SDS011;10869;52.238;10.716;2022-08-11T05:50:26;8.63;;;3.50;;
21416;SDS011;10869;52.238;10.716;2022-08-11T05:53:11;7.17;;;2.93;;
21416;SDS011;10869;52.238;10.716;2022-08-11T05:56:04;7.27;;;3.00;;
21416;SDS011;10869;52.238;10.716;2022-08-11T05:58:50;9.13;;;3.00;;
21416;SDS011;10869;52.238;10.716;2022-08-11T06:01:21;9.50;;;3.30;;
21416;SDS011;10869;52.238;10.716;2022-08-11T06:03:52;7.30;;;2.90;;
21416;SDS011;10869;52.238;10.716;2022-08-11T06:06:42;8.17;;;3.33;;
21416;SDS011;10869;52.238;10.716;2022-08-11T06:12:42;8.10;;;3.13;;
21416;SDS011;10869;52.238;10.716;2022-08-11T06:15:09;5.10;;;2.93;;
21416;SDS011;10869;52.238;10.716;2022-08-11T06:17:43;7.93;;;3.50;;
21416;SDS011;10869;52.238;10.716;2022-08-11T06:20:11;5.23;;;2.37;;
21416;SDS011;10869;52.238;10.716;2022-08-11T06:26:01;4.23;;;2.63;;
21416;SDS011;10869;52.238;10.716;2022-08-11T06:28:35;4.87;;;2.67;;
21416;SDS011;10869;52.238;10.716;2022-08-11T06:31:10;7.00;;;2.57;;
21416;SDS011;10869;52.238;10.716;2022-08-11T06:37:24;6.10;;;2.60;;
21416;SDS011;10869;52.238;10.716;2022-08-11T06:43:29;7.30;;;2.80;;
21416;SDS011;10869;52.238;10.716;2022-08-11T06:49:45;8.07;;;2.30;;
21416;SDS011;10869;52.238;10.716;2022-08-11T06:55:52;6.97;;;2.70;;
21416;SDS011;10869;52.238;10.716;2022-08-11T07:02:05;7.90;;;2.63;;
21416;SDS011;10869;52.238;10.716;2022-08-11T07:04:58;4.60;;;2.30;;
21416;SDS011;10869;52.238;10.716;2022-08-11T07:14:10;10.10;;;2.73;;
21416;SDS011;10869;52.238;10.716;2022-08-11T07:16:57;9.70;;;2.50;;
21416;SDS011;10869;52.238;10.716;2022-08-11T07:23:05;7.83;;;2.43;;
21416;SDS011;10869;52.238;10.716;2022-08-11T07:25:52;7.03;;;2.63;;
21416;SDS011;10869;52.238;10.716;2022-08-11T07:28:39;5.47;;;2.63;;
21416;SDS011;10869;52.238;10.716;2022-08-11T07:31:34;8.47;;;2.60;;
21416;SDS011;10869;52.238;10.716;2022-08-11T07:34:27;7.47;;;2.37;;
21416;SDS011;10869;52.238;10.716;2022-08-11T07:36:59;9.10;;;2.57;;
21416;SDS011;10869;52.238;10.716;2022-08-11T07:39:32;7.57;;;2.43;;
21416;SDS011;10869;52.238;10.716;2022-08-11T07:42:04;4.40;;;1.93;;
21416;SDS011;10869;52.238;10.716;2022-08-11T07:44:32;7.03;;;2.50;;
21416;SDS011;10869;52.238;10.716;2022-08-11T07:47:19;10.00;;;2.20;;
21416;SDS011;10869;52.238;10.716;2022-08-11T07:50:04;7.50;;;2.77;;
21416;SDS011;10869;52.238;10.716;2022-08-11T07:52:51;8.97;;;3.00;;
21416;SDS011;10869;52.238;10.716;2022-08-11T07:55:17;8.93;;;2.53;;
21416;SDS011;10869;52.238;10.716;2022-08-11T07:57:45;5.70;;;2.30;;
21416;SDS011;10869;52.238;10.716;2022-08-11T08:00:34;5.33;;;2.23;;
21416;SDS011;10869;52.238;10.716;2022-08-11T08:03:20;9.07;;;2.50;;
21416;SDS011;10869;52.238;10.716;2022-08-11T08:06:05;6.73;;;2.20;;
21416;SDS011;10869;52.238;10.716;2022-08-11T08:08:50;5.97;;;2.20;;
21416;SDS011;10869;52.238;10.716;2022-08-11T08:11:35;5.40;;;2.33;;
21416;SDS011;10869;52.238;10.716;2022-08-11T08:14:21;4.93;;;2.30;;
21416;SDS011;10869;52.238;10.716;2022-08-11T08:17:06;8.47;;;2.50;;
21416;SDS011;10869;52.238;10.716;2022-08-11T08:19:52;10.17;;;2.73;;
21416;SDS011;10869;52.238;10.716;2022-08-11T08:22:19;4.47;;;2.37;;
21416;SDS011;10869;52.238;10.716;2022-08-11T08:24:45;9.73;;;3.00;;
21416;SDS011;10869;52.238;10.716;2022-08-11T08:27:12;8.47;;;2.73;;
21416;SDS011;10869;52.238;10.716;2022-08-11T08:29:39;7.60;;;3.00;;
21416;SDS011;10869;52.238;10.716;2022-08-11T08:32:26;9.10;;;2.50;;
21416;SDS011;10869;52.238;10.716;2022-08-11T08:38:16;6.70;;;2.80;;
21416;SDS011;10869;52.238;10.716;2022-08-11T08:40:44;8.17;;;2.20;;
21416;SDS011;10869;52.238;10.716;2022-08-11T08:43:14;7.37;;;2.23;;
21416;SDS011;10869;52.238;10.716;2022-08-11T08:45:42;6.27;;;2.43;;
21416;SDS011;10869;52.238;10.716;2022-08-11T08:48:13;7.13;;;2.40;;
21416;SDS011;10869;52.238;10.716;2022-08-11T08:50:46;7.13;;;2.10;;
21416;SDS011;10869;52.238;10.716;2022-08-11T08:53:45;9.53;;;2.50;;
21416;SDS011;10869;52.238;10.716;2022-08-11T08:56:14;6.93;;;2.07;;
21416;SDS011;10869;52.238;10.716;2022-08-11T08:58:42;7.30;;;2.30;;
21416;SDS011;10869;52.238;10.716;2022-08-11T09:01:12;10.10;;;2.33;;
21416;SDS011;10869;52.238;10.716;2022-08-11T09:03:40;7.67;;;2.43;;
21416;SDS011;10869;52.238;10.716;2022-08-11T09:06:06;9.53;;;2.20;;
21416;SDS011;10869;52.238;10.716;2022-08-11T09:08:33;7.97;;;2.27;;
21416;SDS011;10869;52.238;10.716;2022-08-11T09:11:08;6.30;;;2.27;;
21416;SDS011;10869;52.238;10.716;2022-08-11T09:13:54;7.47;;;2.30;;
21416;SDS011;10869;52.238;10.716;2022-08-11T09:16:20;7.20;;;2.30;;
21416;SDS011;10869;52.238;10.716;2022-08-11T09:18:48;8.57;;;2.20;;
21416;SDS011;10869;52.238;10.716;2022-08-11T09:24:38;9.10;;;2.67;;
21416;SDS011;10869;52.238;10.716;2022-08-11T09:27:25;6.60;;;1.83;;
21416;SDS011;10869;52.238;10.716;2022-08-11T09:29:52;6.25;;;2.40;;
21416;SDS011;10869;52.238;10.716;2022-08-11T09:32:20;5.47;;;2.40;;
21416;SDS011;10869;52.238;10.716;2022-08-11T09:34:47;9.95;;;2.58;;
21416;SDS011;10869;52.238;10.716;2022-08-11T09:37:16;8.02;;;2.17;;
21416;SDS011;10869;52.238;10.716;2022-08-11T09:40:01;4.82;;;1.90;;
21416;SDS011;10869;52.238;10.716;2022-08-11T09:42:47;6.82;;;2.05;;
21416;SDS011;10869;52.238;10.716;2022-08-11T09:45:33;6.35;;;2.28;;
21416;SDS011;10869;52.238;10.716;2022-08-11T09:48:01;5.60;;;2.10;;
21416;SDS011;10869;52.238;10.716;2022-08-11T09:50:30;3.95;;;1.83;;
21416;SDS011;10869;52.238;10.716;2022-08-11T09:52:58;5.22;;;1.90;;
21416;SDS011;10869;52.238;10.716;2022-08-11T09:55:30;6.32;;;2.35;;
21416;SDS011;10869;52.238;10.716;2022-08-11T09:57:57;6.95;;;2.25;;
21416;SDS011;10869;52.238;10.716;2022-08-11T10:00:44;9.23;;;2.38;;
21416;SDS011;10869;52.238;10.716;2022-08-11T10:06:03;6.30;;;2.22;;
21416;SDS011;10869;52.238;10.716;2022-08-11T10:08:49;9.32;;;2.53;;
21416;SDS011;10869;52.238;10.716;2022-08-11T10:11:17;6.47;;;1.98;;
21416;SDS011;10869;52.238;10.716;2022-08-11T10:13:50;7.18;;;2.22;;
21416;SDS011;10869;52.238;10.716;2022-08-11T10:16:38;4.90;;;1.95;;
21416;SDS011;10869;52.238;10.716;2022-08-11T10:19:07;8.90;;;1.92;;
21416;SDS011;10869;52.238;10.716;2022-08-11T10:21:36;7.35;;;2.00;;
21416;SDS011;10869;52.238;10.716;2022-08-11T10:24:06;5.50;;;1.85;;
21416;SDS011;10869;52.238;10.716;2022-08-11T10:26:53;6.55;;;2.03;;
21416;SDS011;10869;52.238;10.716;2022-08-11T10:29:30;6.82;;;1.95;;
21416;SDS011;10869;52.238;10.716;2022-08-11T10:32:28;6.22;;;2.22;;
21416;SDS011;10869;52.238;10.716;2022-08-11T10:35:23;2.83;;;1.80;;
21416;SDS011;10869;52.238;10.716;2022-08-11T10:37:50;10.98;;;1.83;;
21416;SDS011;10869;52.238;10.716;2022-08-11T10:40:19;6.15;;;1.80;;
21416;SDS011;10869;52.238;10.716;2022-08-11T10:42:53;5.28;;;2.00;;
21416;SDS011;10869;52.238;10.716;2022-08-11T10:45:30;3.10;;;1.70;;
21416;SDS011;10869;52.238;10.716;2022-08-11T10:48:20;6.35;;;2.28;;
21416;SDS011;10869;52.238;10.716;2022-08-11T10:50:48;5.45;;;2.33;;
21416;SDS011;10869;52.238;10.716;2022-08-11T10:53:34;4.45;;;1.70;;
21416;SDS011;10869;52.238;10.716;2022-08-11T10:56:21;4.50;;;1.98;;
21416;SDS011;10869;52.238;10.716;2022-08-11T10:59:06;9.15;;;2.00;;
21416;SDS011;10869;52.238;10.716;2022-08-11T11:01:36;7.22;;;1.95;;
21416;SDS011;10869;52.238;10.716;2022-08-11T11:04:04;4.35;;;2.03;;
21416;SDS011;10869;52.238;10.716;2022-08-11T11:11:43;4.68;;;2.00;;
21416;SDS011;10869;52.238;10.716;2022-08-11T11:14:33;6.60;;;2.03;;
21416;SDS011;10869;52.238;10.716;2022-08-11T11:17:22;11.43;;;2.10;;
21416;SDS011;10869;52.238;10.716;2022-08-11T11:20:13;5.03;;;2.05;;
21416;SDS011;10869;52.238;10.716;2022-08-11T11:22:42;5.40;;;2.22;;
21416;SDS011;10869;52.238;10.716;2022-08-11T11:39:20;8.90;;;1.85;;
21416;SDS011;10869;52.238;10.716;2022-08-11T11:41:55;5.90;;;1.70;;
21416;SDS011;10869;52.238;10.716;2022-08-11T11:44:43;8.10;;;1.80;;
21416;SDS011;10869;52.238;10.716;2022-08-11T11:47:20;5.68;;;1.77;;
21416;SDS011;10869;52.238;10.716;2022-08-11T11:49:57;11.60;;;1.92;;
21416;SDS011;10869;52.238;10.716;2022-08-11T11:52:27;3.80;;;1.63;;
21416;SDS011;10869;52.238;10.716;2022-08-11T12:36:20;6.15;;;1.58;;
21416;SDS011;10869;52.238;10.716;2022-08-11T12:38:57;7.80;;;1.80;;
21416;SDS011;10869;52.238;10.716;2022-08-11T12:41:25;7.97;;;1.58;;
21416;SDS011;10869;52.238;10.716;2022-08-11T12:44:11;5.45;;;1.75;;
21416;SDS011;10869;52.238;10.716;2022-08-11T12:46:57;8.00;;;1.70;;
21416;SDS011;10869;52.238;10.716;2022-08-11T12:49:25;10.05;;;1.60;;
21416;SDS011;10869;52.238;10.716;2022-08-11T12:52:17;5.90;;;1.50;;
21416;SDS011;10869;52.238;10.716;2022-08-11T13:24:22;8.45;;;1.95;;
21416;SDS011;10869;52.238;10.716;2022-08-11T13:37:50;4.35;;;1.83;;
21416;SDS011;10869;52.238;10.716;2022-08-11T13:43:40;4.50;;;1.60;;
21416;SDS011;10869;52.238;10.716;2022-08-11T13:46:14;8.02;;;1.80;;
21416;SDS011;10869;52.238;10.716;2022-08-11T13:52:11;7.30;;;1.95;;
21416;SDS011;10869;52.238;10.716;2022-08-11T13:54:39;5.65;;;1.65;;
21416;SDS011;10869;52.238;10.716;2022-08-11T14:00:28;6.72;;;1.98;;
21416;SDS011;10869;52.238;10.716;2022-08-11T14:02:55;5.95;;;1.77;;
21416;SDS011;10869;52.238;10.716;2022-08-11T14:05:48;4.88;;;1.55;;
21416;SDS011;10869;52.238;10.716;2022-08-11T14:08:19;9.25;;;2.30;;
21416;SDS011;10869;52.238;10.716;2022-08-11T14:10:48;7.32;;;1.90;;
21416;SDS011;10869;52.238;10.716;2022-08-11T14:13:36;6.88;;;1.67;;
21416;SDS011;10869;52.238;10.716;2022-08-11T14:16:11;8.65;;;1.63;;
21416;SDS011;10869;52.238;10.716;2022-08-11T14:18:56;4.35;;;1.90;;
21416;SDS011;10869;52.238;10.716;2022-08-11T14:21:35;6.65;;;1.85;;
21416;SDS011;10869;52.238;10.716;2022-08-11T14:24:23;6.90;;;1.88;;
21416;SDS011;10869;52.238;10.716;2022-08-11T14:26:51;4.60;;;2.20;;
21416;SDS011;10869;52.238;10.716;2022-08-11T14:29:26;4.60;;;1.88;;
21416;SDS011;10869;52.238;10.716;2022-08-11T14:31:58;10.00;;;1.92;;
21416;SDS011;10869;52.238;10.716;2022-08-11T14:34:27;10.05;;;2.60;;
21416;SDS011;10869;52.238;10.716;2022-08-11T14:48:49;6.82;;;1.60;;
21416;SDS011;10869;52.238;10.716;2022-08-11T14:51:16;6.38;;;2.00;;
21416;SDS011;10869;52.238;10.716;2022-08-11T14:53:42;4.85;;;1.73;;
21416;SDS011;10869;52.238;10.716;2022-08-11T14:59:30;5.47;;;2.00;;
21416;SDS011;10869;52.238;10.716;2022-08-11T15:05:19;5.30;;;1.67;;
21416;SDS011;10869;52.238;10.716;2022-08-11T15:07:45;7.53;;;2.17;;
21416;SDS011;10869;52.238;10.716;2022-08-11T15:10:11;4.72;;;1.73;;
21416;SDS011;10869;52.238;10.716;2022-08-11T15:12:38;4.75;;;1.75;;
21416;SDS011;10869;52.238;10.716;2022-08-11T15:18:29;6.18;;;1.92;;
21416;SDS011;10869;52.238;10.716;2022-08-11T15:24:18;6.82;;;1.80;;
21416;SDS011;10869;52.238;10.716;2022-08-11T15:26:44;6.50;;;2.15;;
21416;SDS011;10869;52.238;10.716;2022-08-11T15:29:32;8.15;;;1.40;;
21416;SDS011;10869;52.238;10.716;2022-08-11T15:32:19;6.47;;;2.20;;
21416;SDS011;10869;52.238;10.716;2022-08-11T15:38:29;6.82;;;1.77;;
21416;SDS011;10869;52.238;10.716;2022-08-11T15:41:00;5.85;;;1.50;;
21416;SDS011;10869;52.238;10.716;2022-08-11T15:43:48;5.82;;;1.50;;
21416;SDS011;10869;52.238;10.716;2022-08-11T15:46:43;4.43;;;1.77;;
21416;SDS011;10869;52.238;10.716;2022-08-11T15:51:47;7.72;;;2.05;;
21416;SDS011;10869;52.238;10.716;2022-08-11T15:54:21;7.25;;;1.80;;
21416;SDS011;10869;52.238;10.716;2022-08-11T15:56:49;7.53;;;1.63;;
21416;SDS011;10869;52.238;10.716;2022-08-11T15:59:17;5.68;;;2.00;;
21416;SDS011;10869;52.238;10.716;2022-08-11T16:02:03;7.28;;;2.08;;
21416;SDS011;10869;52.238;10.716;2022-08-11T16:04:49;4.90;;;1.70;;
21416;SDS011;10869;52.238;10.716;2022-08-11T16:07:18;7.10;;;1.90;;
21416;SDS011;10869;52.238;10.716;2022-08-11T16:12:21;8.05;;;1.80;;
21416;SDS011;10869;52.238;10.716;2022-08-11T16:14:53;7.50;;;1.92;;
21416;SDS011;10869;52.238;10.716;2022-08-11T16:17:46;6.47;;;1.58;;
21416;SDS011;10869;52.238;10.716;2022-08-11T16:20:16;6.50;;;1.90;;
21416;SDS011;10869;52.238;10.716;2022-08-11T16:22:47;6.20;;;1.50;;
21416;SDS011;10869;52.238;10.716;2022-08-11T16:28:37;5.93;;;1.92;;
21416;SDS011;10869;52.238;10.716;2022-08-11T16:31:04;4.47;;;1.67;;
21416;SDS011;10869;52.238;10.716;2022-08-11T16:33:39;2.95;;;1.65;;
21416;SDS011;10869;52.238;10.716;2022-08-11T16:36:06;4.78;;;1.70;;
21416;SDS011;10869;52.238;10.716;2022-08-11T16:38:53;5.40;;;1.70;;
21416;SDS011;10869;52.238;10.716;2022-08-11T16:41:20;10.05;;;1.70;;
21416;SDS011;10869;52.238;10.716;2022-08-11T16:44:06;3.55;;;1.60;;
21416;SDS011;10869;52.238;10.716;2022-08-11T16:46:56;13.73;;;2.55;;
21416;SDS011;10869;52.238;10.716;2022-08-11T16:52:00;11.75;;;2.20;;
21416;SDS011;10869;52.238;10.716;2022-08-11T16:54:34;3.75;;;1.80;;
21416;SDS011;10869;52.238;10.716;2022-08-11T16:57:17;5.85;;;1.90;;
21416;SDS011;10869;52.238;10.716;2022-08-11T17:00:05;4.57;;;1.52;;
21416;SDS011;10869;52.238;10.716;2022-08-11T17:02:39;4.78;;;1.73;;
21416;SDS011;10869;52.238;10.716;2022-08-11T17:05:27;4.68;;;1.58;;
21416;SDS011;10869;52.238;10.716;2022-08-11T17:08:16;5.93;;;1.52;;
21416;SDS011;10869;52.238;10.716;2022-08-11T17:11:04;2.90;;;1.38;;
21416;SDS011;10869;52.238;10.716;2022-08-11T17:13:54;8.40;;;1.73;;
21416;SDS011;10869;52.238;10.716;2022-08-11T17:16:24;2.67;;;1.60;;
21416;SDS011;10869;52.238;10.716;2022-08-11T17:21:49;7.85;;;1.85;;
21416;SDS011;10869;52.238;10.716;2022-08-11T17:24:38;3.58;;;1.83;;
21416;SDS011;10869;52.238;10.716;2022-08-11T17:27:17;6.28;;;1.60;;
21416;SDS011;10869;52.238;10.716;2022-08-11T17:33:10;5.90;;;1.75;;
21416;SDS011;10869;52.238;10.716;2022-08-11T17:38:33;6.32;;;1.75;;
21416;SDS011;10869;52.238;10.716;2022-08-11T17:44:30;7.17;;;2.00;;
21416;SDS011;10869;52.238;10.716;2022-08-11T17:47:31;7.22;;;1.73;;
21416;SDS011;10869;52.238;10.716;2022-08-11T17:50:19;4.47;;;1.53;;
21416;SDS011;10869;52.238;10.716;2022-08-11T17:52:47;6.47;;;1.87;;
21416;SDS011;10869;52.238;10.716;2022-08-11T17:55:32;5.50;;;1.80;;
21416;SDS011;10869;52.238;10.716;2022-08-11T17:58:20;5.60;;;1.83;;
21416;SDS011;10869;52.238;10.716;2022-08-11T18:01:05;5.87;;;2.07;;
21416;SDS011;10869;52.238;10.716;2022-08-11T18:03:35;6.77;;;2.13;;
21416;SDS011;10869;52.238;10.716;2022-08-11T18:06:10;4.90;;;1.90;;
21416;SDS011;10869;52.238;10.716;2022-08-11T18:08:40;5.47;;;2.13;;
21416;SDS011;10869;52.238;10.716;2022-08-11T18:11:26;7.87;;;1.77;;
21416;SDS011;10869;52.238;10.716;2022-08-11T18:14:15;4.03;;;1.70;;
21416;SDS011;10869;52.238;10.716;2022-08-11T18:17:00;6.40;;;1.80;;
21416;SDS011;10869;52.238;10.716;2022-08-11T18:19:44;8.00;;;2.13;;
21416;SDS011;10869;52.238;10.716;2022-08-11T18:22:35;4.07;;;1.90;;
21416;SDS011;10869;52.238;10.716;2022-08-11T18:30:37;14.97;;;3.33;;
21416;SDS011;10869;52.238;10.716;2022-08-11T18:36:53;11.10;;;2.80;;
21416;SDS011;10869;52.238;10.716;2022-08-11T18:39:44;10.00;;;2.87;;
21416;SDS011;10869;52.238;10.716;2022-08-11T18:42:42;8.70;;;2.17;;
21416;SDS011;10869;52.238;10.716;2022-08-11T18:45:31;8.90;;;2.47;;
21416;SDS011;10869;52.238;10.716;2022-08-11T18:48:20;4.60;;;1.60;;
21416;SDS011;10869;52.238;10.716;2022-08-11T18:51:08;6.40;;;1.60;;
21416;SDS011;10869;52.238;10.716;2022-08-11T18:53:59;7.53;;;1.83;;
21416;SDS011;10869;52.238;10.716;2022-08-11T18:56:48;3.03;;;1.60;;
21416;SDS011;10869;52.238;10.716;2022-08-11T18:59:37;4.40;;;1.80;;
21416;SDS011;10869;52.238;10.716;2022-08-11T19:59:39;4.37;;;1.60;;
21416;SDS011;10869;52.238;10.716;2022-08-11T20:05:46;7.50;;;1.80;;
21416;SDS011;10869;52.238;10.716;2022-08-11T20:08:32;6.20;;;2.03;;
21416;SDS011;10869;52.238;10.716;2022-08-11T20:14:41;7.73;;;2.37;;
21416;SDS011;10869;52.238;10.716;2022-08-11T20:17:28;7.63;;;1.90;;
21416;SDS011;10869;52.238;10.716;2022-08-11T20:23:39;7.33;;;2.50;;
21416;SDS011;10869;52.238;10.716;2022-08-11T20:26:26;3.73;;;1.80;;
21416;SDS011;10869;52.238;10.716;2022-08-11T20:32:35;6.33;;;1.83;;
21416;SDS011;10869;52.238;10.716;2022-08-11T20:35:21;9.80;;;1.80;;
21416;SDS011;10869;52.238;10.716;2022-08-11T20:38:07;8.20;;;2.50;;
21416;SDS011;10869;52.238;10.716;2022-08-11T20:40:52;9.60;;;2.07;;
21416;SDS011;10869;52.238;10.716;2022-08-11T20:43:38;7.13;;;2.13;;
21416;SDS011;10869;52.238;10.716;2022-08-11T20:46:24;5.80;;;1.67;;
21416;SDS011;10869;52.238;10.716;2022-08-11T20:49:11;5.67;;;2.10;;
21416;SDS011;10869;52.238;10.716;2022-08-11T20:51:58;4.23;;;1.80;;
21416;SDS011;10869;52.238;10.716;2022-08-11T20:54:44;5.10;;;2.00;;
21416;SDS011;10869;52.238;10.716;2022-08-11T20:57:28;2.60;;;1.73;;
21416;SDS011;10869;52.238;10.716;2022-08-11T21:00:14;5.57;;;2.10;;
21416;SDS011;10869;52.238;10.716;2022-08-11T21:02:59;8.60;;;2.00;;
21416;SDS011;10869;52.238;10.716;2022-08-11T21:05:43;7.27;;;2.17;;
21416;SDS011;10869;52.238;10.716;2022-08-11T21:08:30;10.53;;;2.30;;
21416;SDS011;10869;52.238;10.716;2022-08-11T21:11:17;9.17;;;2.23;;
21416;SDS011;10869;52.238;10.716;2022-08-11T21:14:04;7.13;;;2.27;;
21416;SDS011;10869;52.238;10.716;2022-08-11T21:16:53;3.57;;;1.97;;
21416;SDS011;10869;52.238;10.716;2022-08-11T21:19:46;8.70;;;2.20;;
21416;SDS011;10869;52.238;10.716;2022-08-11T21:22:45;5.33;;;1.80;;
21416;SDS011;10869;52.238;10.716;2022-08-11T21:25:49;7.60;;;2.10;;
21416;SDS011;10869;52.238;10.716;2022-08-11T21:28:58;3.93;;;1.70;;
21416;SDS011;10869;52.238;10.716;2022-08-11T21:31:44;7.13;;;2.20;;
21416;SDS011;10869;52.238;10.716;2022-08-11T21:34:30;5.97;;;2.33;;
21416;SDS011;10869;52.238;10.716;2022-08-11T21:37:16;8.53;;;2.37;;
21416;SDS011;10869;52.238;10.716;2022-08-11T21:40:02;7.43;;;2.60;;
21416;SDS011;10869;52.238;10.716;2022-08-11T21:42:48;15.43;;;2.53;;
21416;SDS011;10869;52.238;10.716;2022-08-11T21:45:35;5.20;;;2.37;;
21416;SDS011;10869;52.238;10.716;2022-08-11T21:48:22;3.77;;;2.00;;
21416;SDS011;10869;52.238;10.716;2022-08-11T21:51:09;9.30;;;2.47;;
21416;SDS011;10869;52.238;10.716;2022-08-11T21:53:54;7.27;;;2.23;;
21416;SDS011;10869;52.238;10.716;2022-08-11T21:56:40;7.70;;;2.13;;
21416;SDS011;10869;52.238;10.716;2022-08-11T21:59:31;10.10;;;2.50;;
21416;SDS011;10869;52.238;10.716;2022-08-11T22:02:40;4.07;;;2.20;;
21416;SDS011;10869;52.238;10.716;2022-08-11T22:05:26;8.30;;;2.10;;
21416;SDS011;10869;52.238;10.716;2022-08-11T22:08:12;6.60;;;2.10;;
21416;SDS011;10869;52.238;10.716;2022-08-11T22:10:57;6.00;;;2.03;;
21416;SDS011;10869;52.238;10.716;2022-08-11T22:13:42;8.97;;;2.30;;
21416;SDS011;10869;52.238;10.716;2022-08-11T22:16:27;4.60;;;2.00;;
21416;SDS011;10869;52.238;10.716;2022-08-11T22:19:14;5.63;;;2.23;;
21416;SDS011;10869;52.238;10.716;2022-08-11T22:22:00;6.43;;;2.60;;
21416;SDS011;10869;52.238;10.716;2022-08-11T22:24:45;10.87;;;2.63;;
21416;SDS011;10869;52.238;10.716;2022-08-11T22:27:30;5.93;;;2.27;;
21416;SDS011;10869;52.238;10.716;2022-08-11T22:30:16;8.93;;;2.07;;
21416;SDS011;10869;52.238;10.716;2022-08-11T22:33:02;5.37;;;2.47;;
21416;SDS011;10869;52.238;10.716;2022-08-11T22:35:48;6.17;;;2.07;;
21416;SDS011;10869;52.238;10.716;2022-08-11T22:38:34;8.13;;;2.30;;
21416;SDS011;10869;52.238;10.716;2022-08-11T22:41:22;5.83;;;2.40;;
21416;SDS011;10869;52.238;10.716;2022-08-11T22:44:08;5.87;;;2.10;;
21416;SDS011;10869;52.238;10.716;2022-08-11T22:46:56;10.53;;;2.40;;
21416;SDS011;10869;52.238;10.716;2022-08-11T22:49:42;10.87;;;2.17;;
21416;SDS011;10869;52.238;10.716;2022-08-11T22:52:29;4.77;;;2.30;;
21416;SDS011;10869;52.238;10.716;2022-08-11T22:55:14;6.60;;;2.30;;
21416;SDS011;10869;52.238;10.716;2022-08-11T22:57:59;6.13;;;2.33;;
